< Typhoon 197015 1970 Season Typhoon 197017 >
Typhoon 197016 (GEORGIA)
General InformationTrack Information on Google Maps || Disaster Info.ResourceGoogle EarthGE AnimationAtom FeedGeoJSON
Detalied Best Track (Time Zone = UTC)
Year Month Day Hour Lat. Long. Pressure (hPa) Wind (kt) Class Image Chart
1970 9 7 18 14.6 137.6 1006 0 2 -- Chart
1970 9 8 00 14.7 136.0 1000 0 2 -- Chart
1970 9 8 06 14.8 134.6 995 0 9 -- Chart
1970 9 8 12 14.8 133.4 995 0 9 -- Chart
1970 9 8 18 14.9 132.2 990 0 9 -- Chart
1970 9 9 00 14.6 131.0 980 0 9 -- Chart
1970 9 9 06 14.4 130.0 970 0 9 -- Chart
1970 9 9 12 14.6 128.7 955 0 9 -- Chart
1970 9 9 18 14.8 127.2 945 0 9 -- Chart
1970 9 10 00 15.0 126.1 930 0 9 -- Chart
1970 9 10 06 15.3 125.3 920 0 9 -- Chart
1970 9 10 12 15.5 124.3 915 0 9 -- Chart
1970 9 10 18 15.9 123.0 905 0 9 -- Chart
1970 9 11 00 16.2 121.8 920 0 9 -- Chart
1970 9 11 06 17.0 120.5 950 0 9 -- Chart
1970 9 11 12 17.5 119.5 970 0 9 -- Chart
1970 9 11 18 17.7 118.7 980 0 9 -- Chart
1970 9 12 00 18.0 118.0 985 0 9 -- Chart
1970 9 12 06 18.3 117.3 980 0 9 -- Chart
1970 9 12 12 18.8 116.6 975 0 9 -- Chart
1970 9 12 18 19.6 116.2 975 0 9 -- Chart
1970 9 13 00 19.8 116.0 975 0 9 -- Chart
1970 9 13 06 20.2 115.6 975 0 9 -- Chart
1970 9 13 12 21.0 115.3 975 0 9 -- Chart
1970 9 13 18 21.8 115.2 975 0 9 -- Chart
1970 9 14 00 22.9 115.1 985 0 9 -- Chart
1970 9 14 06 23.7 115.0 990 0 9 -- Chart
1970 9 14 12 24.5 115.0 996 0 9 -- Chart
1970 9 14 18 25.3 114.9 1002 0 2 -- Chart
1970 9 15 00 26.2 114.8 1005 0 2 -- Chart
1970 9 15 06 27.3 115.1 1005 0 2 -- Chart
1970 9 15 12 28.3 115.3 1006 0 2 -- Chart
1970 9 15 18 30.0 115.9 1007 0 2 -- Chart
1970 9 16 00 31.3 116.4 1008 0 2 -- Chart
Japan Meteorological Agency Best Track Data | Correction Date : 1989-06-01
< Typhoon 197015 1970 Season Typhoon 197017 >

Help